Time;durP1;ratioP1;P1;durP2;ratioP2;P2;SDS_P1;SDS_P2;PMS_P1;PMS_P2;Temp;Humidity;BMP_temperature;BMP_pressure;BME280_temperature;BME280_humidity;BME280_pressure;Samples;Min_cycle;Max_cycle;Signal;HPM_P1;HPM_P2
2023/09/18 00:02:04;;;;;;;14.27;7.00;;;;;;;;;;4979437;28;20030;-68
2023/09/18 00:04:30;;;;;;;13.07;7.18;;;;;;;;;;4985876;28;20035;-68
2023/09/18 00:06:55;;;;;;;12.02;6.35;;;;;;;;;;4981552;28;20139;-68
2023/09/18 00:09:21;;;;;;;12.73;6.55;;;;;;;;;;4985130;28;20041;-67
2023/09/18 00:11:47;;;;;;;11.27;5.40;;;;;;;;;;4988922;28;20030;-68
2023/09/18 00:14:12;;;;;;;11.10;5.15;;;;;;;;;;4973222;28;20035;-68
2023/09/18 00:16:38;;;;;;;8.05;5.15;;;;;;;;;;4977502;28;20038;-68
2023/09/18 00:19:06;;;;;;;6.93;4.70;;;;;;;;;;4976432;28;20049;-68
2023/09/18 00:21:31;;;;;;;8.02;4.75;;;;;;;;;;4982768;28;20048;-67
2023/09/18 00:24:00;;;;;;;7.45;4.70;;;;;;;;;;4974944;28;20026;-68
2023/09/18 00:26:25;;;;;;;10.73;5.50;;;;;;;;;;4974639;28;20124;-68
2023/09/18 00:28:50;;;;;;;10.73;5.13;;;;;;;;;;4971681;28;20476;-68
2023/09/18 00:31:16;;;;;;;10.45;5.20;;;;;;;;;;4973070;28;20035;-68
2023/09/18 00:33:41;;;;;;;6.88;4.55;;;;;;;;;;4975130;28;20047;-68
2023/09/18 00:36:07;;;;;;;5.72;3.80;;;;;;;;;;4976009;28;20096;-68
2023/09/18 00:38:32;;;;;;;6.88;4.10;;;;;;;;;;4975933;28;20042;-68
2023/09/18 00:40:57;;;;;;;8.38;4.43;;;;;;;;;;4973451;28;20102;-68
2023/09/18 00:43:23;;;;;;;7.45;4.45;;;;;;;;;;4975799;28;20046;-68
2023/09/18 00:45:49;;;;;;;8.70;3.90;;;;;;;;;;4974750;28;20049;-68
2023/09/18 00:48:16;;;;;;;10.13;4.93;;;;;;;;;;4973679;28;20031;-68
2023/09/18 00:50:43;;;;;;;9.05;4.30;;;;;;;;;;4984765;28;20058;-67
2023/09/18 00:53:10;;;;;;;10.00;5.20;;;;;;;;;;4972927;28;20023;-68
2023/09/18 00:55:39;;;;;;;11.15;5.13;;;;;;;;;;4977198;28;20035;-68
2023/09/18 00:58:06;;;;;;;8.27;4.95;;;;;;;;;;4984536;28;20038;-68
2023/09/18 01:00:31;;;;;;;10.38;5.13;;;;;;;;;;4976449;28;20427;-68
2023/09/18 01:02:56;;;;;;;10.57;5.53;;;;;;;;;;4975571;28;20528;-68
2023/09/18 01:05:22;;;;;;;11.13;5.60;;;;;;;;;;4981318;28;20085;-68
2023/09/18 01:07:47;;;;;;;11.00;5.50;;;;;;;;;;4975509;28;20127;-68
2023/09/18 01:10:16;;;;;;;8.23;5.03;;;;;;;;;;4977638;28;20041;-68
2023/09/18 01:12:55;;;;;;;16.05;5.72;;;;;;;;;;4972784;28;20042;-68
2023/09/18 01:15:35;;;;;;;9.00;5.47;;;;;;;;;;4972675;28;20050;-68
2023/09/18 01:18:01;;;;;;;14.32;5.15;;;;;;;;;;4986620;28;20073;-67
2023/09/18 01:20:27;;;;;;;12.95;5.57;;;;;;;;;;4974190;28;20062;-68
2023/09/18 01:22:52;;;;;;;13.40;5.30;;;;;;;;;;4975666;28;20535;-68
2023/09/18 01:25:18;;;;;;;9.68;4.70;;;;;;;;;;4970442;28;20042;-68
2023/09/18 01:27:43;;;;;;;10.70;5.15;;;;;;;;;;4981731;28;20633;-68
2023/09/18 01:30:09;;;;;;;9.68;5.30;;;;;;;;;;4973311;28;20034;-67
2023/09/18 01:32:36;;;;;;;10.80;5.25;;;;;;;;;;4978058;28;20030;-68
2023/09/18 01:35:06;;;;;;;8.75;4.65;;;;;;;;;;4983870;28;20038;-68
2023/09/18 01:37:32;;;;;;;7.22;3.95;;;;;;;;;;4985754;28;20042;-68
2023/09/18 01:39:59;;;;;;;12.27;4.28;;;;;;;;;;4994017;28;20081;-68
2023/09/18 01:42:27;;;;;;;8.75;4.75;;;;;;;;;;4983379;28;20096;-68
2023/09/18 01:44:54;;;;;;;8.68;4.57;;;;;;;;;;4977228;28;20113;-68
2023/09/18 01:47:23;;;;;;;8.60;4.90;;;;;;;;;;4979029;28;20041;-68
2023/09/18 01:49:48;;;;;;;10.05;5.28;;;;;;;;;;4995994;28;20050;-68
2023/09/18 01:52:14;;;;;;;9.45;4.07;;;;;;;;;;4976598;28;20061;-68
2023/09/18 01:54:39;;;;;;;7.03;4.00;;;;;;;;;;4973062;28;20743;-68
2023/09/18 01:57:07;;;;;;;6.25;3.40;;;;;;;;;;4972302;28;20022;-68
2023/09/18 01:59:33;;;;;;;7.97;3.30;;;;;;;;;;4974546;28;20056;-68
2023/09/18 02:01:58;;;;;;;7.85;2.90;;;;;;;;;;4973114;28;20039;-68
2023/09/18 02:04:25;;;;;;;4.78;2.70;;;;;;;;;;4979386;28;20104;-68
2023/09/18 02:06:51;;;;;;;4.78;3.10;;;;;;;;;;4976215;28;20038;-68
2023/09/18 02:09:17;;;;;;;5.13;2.95;;;;;;;;;;4983967;28;20037;-68
2023/09/18 02:11:46;;;;;;;6.97;2.70;;;;;;;;;;4996450;28;20026;-68
2023/09/18 02:14:12;;;;;;;4.90;2.70;;;;;;;;;;4972490;28;20041;-68
2023/09/18 02:16:43;;;;;;;6.57;2.50;;;;;;;;;;4973419;28;20043;-68
2023/09/18 02:19:09;;;;;;;4.30;2.80;;;;;;;;;;4975001;28;20058;-68
2023/09/18 02:21:35;;;;;;;3.80;2.35;;;;;;;;;;4971775;28;20134;-67
2023/09/18 02:24:01;;;;;;;4.85;2.50;;;;;;;;;;4976598;28;20105;-68
2023/09/18 02:26:27;;;;;;;4.65;2.63;;;;;;;;;;4977502;28;20023;-68
2023/09/18 02:28:53;;;;;;;6.53;2.63;;;;;;;;;;4974070;28;20034;-68
2023/09/18 02:31:19;;;;;;;4.38;2.63;;;;;;;;;;4973311;28;20046;-68
2023/09/18 02:33:44;;;;;;;4.95;2.85;;;;;;;;;;4980456;28;20145;-68
2023/09/18 02:36:09;;;;;;;5.45;2.70;;;;;;;;;;4973015;28;20452;-68
2023/09/18 02:38:35;;;;;;;3.78;2.67;;;;;;;;;;4968638;28;20019;-68
2023/09/18 02:41:00;;;;;;;5.60;2.60;;;;;;;;;;4975544;28;20137;-68
2023/09/18 02:43:26;;;;;;;6.10;2.78;;;;;;;;;;4979174;28;20412;-68
2023/09/18 02:45:52;;;;;;;6.22;3.00;;;;;;;;;;4972005;28;20043;-68
2023/09/18 02:48:18;;;;;;;5.25;2.70;;;;;;;;;;4972934;28;20396;-68
2023/09/18 02:50:44;;;;;;;5.90;2.60;;;;;;;;;;4976378;28;20030;-68
2023/09/18 02:53:18;;;;;;;3.72;2.13;;;;;;;;;;4972806;28;20046;-68
2023/09/18 02:55:44;;;;;;;7.72;2.55;;;;;;;;;;4976755;28;20082;-68
2023/09/18 02:58:10;;;;;;;4.25;2.42;;;;;;;;;;4984736;28;20043;-68
2023/09/18 03:00:42;;;;;;;4.20;2.30;;;;;;;;;;4986414;28;20053;-68
2023/09/18 03:03:07;;;;;;;4.05;2.38;;;;;;;;;;4984979;28;20031;-68
2023/09/18 03:05:32;;;;;;;6.85;2.60;;;;;;;;;;4980216;28;20038;-68
2023/09/18 03:07:58;;;;;;;7.30;2.70;;;;;;;;;;4975752;28;20039;-68
2023/09/18 03:10:23;;;;;;;3.38;2.20;;;;;;;;;;4976250;28;20249;-68
2023/09/18 03:12:49;;;;;;;4.13;2.80;;;;;;;;;;4979493;28;20524;-68
2023/09/18 03:15:14;;;;;;;4.63;2.03;;;;;;;;;;4979426;28;20034;-68
2023/09/18 03:17:41;;;;;;;4.75;1.90;;;;;;;;;;4973237;28;20101;-68
2023/09/18 03:20:08;;;;;;;5.40;1.80;;;;;;;;;;4979067;28;20574;-68
2023/09/18 03:22:33;;;;;;;2.63;1.80;;;;;;;;;;4977512;28;20049;-68
2023/09/18 03:24:58;;;;;;;3.05;1.80;;;;;;;;;;4977150;28;20038;-68
2023/09/18 03:27:28;;;;;;;4.65;2.08;;;;;;;;;;4975015;28;20090;-68
2023/09/18 03:29:56;;;;;;;3.10;1.90;;;;;;;;;;4983915;28;20126;-68
2023/09/18 03:32:22;;;;;;;3.47;1.75;;;;;;;;;;4975074;28;20694;-68
2023/09/18 03:34:50;;;;;;;4.03;1.75;;;;;;;;;;4995145;28;20085;-68
2023/09/18 03:37:16;;;;;;;2.35;1.70;;;;;;;;;;4981122;28;20038;-68
2023/09/18 03:39:41;;;;;;;2.75;1.52;;;;;;;;;;4977805;28;20053;-67
2023/09/18 03:42:06;;;;;;;2.25;1.65;;;;;;;;;;4972981;28;20042;-68
2023/09/18 03:44:32;;;;;;;4.15;1.90;;;;;;;;;;4979156;28;20034;-68
2023/09/18 03:46:57;;;;;;;2.90;1.52;;;;;;;;;;4978446;28;20038;-68
2023/09/18 03:49:22;;;;;;;2.85;1.45;;;;;;;;;;4973814;28;20039;-68
2023/09/18 03:51:48;;;;;;;3.85;1.50;;;;;;;;;;4977242;28;20047;-68
2023/09/18 03:54:13;;;;;;;2.00;1.50;;;;;;;;;;4978576;28;21011;-68
2023/09/18 03:56:38;;;;;;;2.88;1.65;;;;;;;;;;4978534;28;20041;-68
2023/09/18 03:59:04;;;;;;;2.92;1.48;;;;;;;;;;4979204;28;20043;-68
2023/09/18 04:01:30;;;;;;;3.78;1.77;;;;;;;;;;4972400;28;20054;-68
2023/09/18 04:03:55;;;;;;;3.08;1.50;;;;;;;;;;4978253;28;20125;-68
2023/09/18 04:06:24;;;;;;;2.80;1.60;;;;;;;;;;4975564;28;20588;-68
2023/09/18 04:08:49;;;;;;;2.90;1.42;;;;;;;;;;4981485;28;20114;-68
2023/09/18 04:11:15;;;;;;;3.00;1.67;;;;;;;;;;4974792;28;20055;-68
2023/09/18 04:13:40;;;;;;;1.98;1.55;;;;;;;;;;4982592;28;20057;-68
2023/09/18 04:16:05;;;;;;;4.10;2.20;;;;;;;;;;4975185;28;20821;-68
2023/09/18 04:18:31;;;;;;;4.65;1.58;;;;;;;;;;4976835;28;20065;-68
2023/09/18 04:20:56;;;;;;;3.15;1.33;;;;;;;;;;4977175;28;20422;-68
2023/09/18 04:23:26;;;;;;;3.70;1.58;;;;;;;;;;4979674;28;20121;-68
2023/09/18 04:25:53;;;;;;;4.35;1.58;;;;;;;;;;4977296;28;20383;-68
2023/09/18 04:28:21;;;;;;;2.80;1.50;;;;;;;;;;4991116;28;20076;-68
2023/09/18 04:30:46;;;;;;;4.00;1.45;;;;;;;;;;4979242;28;20043;-68
2023/09/18 04:33:13;;;;;;;2.17;1.25;;;;;;;;;;4974531;28;20158;-68
2023/09/18 04:35:39;;;;;;;4.38;1.73;;;;;;;;;;4976147;28;20668;-68
2023/09/18 04:38:08;;;;;;;4.05;1.50;;;;;;;;;;4981638;28;20042;-68
2023/09/18 04:40:34;;;;;;;2.17;1.50;;;;;;;;;;4975217;28;20178;-68
2023/09/18 04:43:00;;;;;;;1.85;1.30;;;;;;;;;;4974896;28;20050;-67
2023/09/18 04:45:26;;;;;;;3.38;1.70;;;;;;;;;;4979899;28;20027;-68
2023/09/18 04:47:52;;;;;;;4.10;1.70;;;;;;;;;;4981753;28;20126;-68
2023/09/18 04:50:18;;;;;;;2.55;1.63;;;;;;;;;;4975641;28;20054;-68
2023/09/18 04:52:43;;;;;;;5.15;1.70;;;;;;;;;;4976797;28;20076;-68
2023/09/18 04:55:10;;;;;;;3.45;2.45;;;;;;;;;;4976429;28;20081;-68
2023/09/18 04:57:36;;;;;;;2.78;1.67;;;;;;;;;;4980552;28;20563;-68
2023/09/18 05:00:02;;;;;;;3.08;1.65;;;;;;;;;;4973011;28;20030;-68
2023/09/18 05:02:27;;;;;;;4.05;1.80;;;;;;;;;;4975267;28;20034;-68
2023/09/18 05:04:55;;;;;;;3.80;2.03;;;;;;;;;;4982286;28;20570;-68
2023/09/18 05:07:20;;;;;;;3.30;2.08;;;;;;;;;;4975791;28;20519;-68
2023/09/18 05:09:46;;;;;;;4.07;1.77;;;;;;;;;;4970460;28;20045;-68
2023/09/18 05:12:13;;;;;;;2.55;1.73;;;;;;;;;;4977869;28;20076;-68
2023/09/18 05:14:41;;;;;;;4.72;2.08;;;;;;;;;;4977250;28;20042;-68
2023/09/18 05:17:09;;;;;;;5.57;1.80;;;;;;;;;;4978049;28;20113;-68
2023/09/18 05:19:35;;;;;;;3.65;1.65;;;;;;;;;;4973696;28;20186;-68
2023/09/18 05:22:00;;;;;;;5.15;1.88;;;;;;;;;;4976412;28;20039;-68
2023/09/18 05:24:27;;;;;;;5.25;2.03;;;;;;;;;;4974651;28;20061;-68
2023/09/18 05:26:53;;;;;;;3.88;1.80;;;;;;;;;;4974550;28;20512;-68
2023/09/18 05:29:19;;;;;;;3.10;1.73;;;;;;;;;;4979540;28;20049;-68
2023/09/18 05:31:45;;;;;;;3.80;1.90;;;;;;;;;;4974542;28;20130;-68
2023/09/18 05:34:11;;;;;;;4.18;1.88;;;;;;;;;;4972810;28;20042;-68
2023/09/18 05:36:37;;;;;;;5.07;1.95;;;;;;;;;;4976235;28;20060;-68
2023/09/18 05:39:03;;;;;;;3.78;1.65;;;;;;;;;;4997952;28;20492;-67
2023/09/18 05:41:28;;;;;;;6.80;2.38;;;;;;;;;;4970597;28;20046;-68
2023/09/18 05:43:55;;;;;;;3.60;1.90;;;;;;;;;;4998752;28;20094;-67
2023/09/18 05:46:20;;;;;;;4.35;2.13;;;;;;;;;;4976416;28;20591;-68
2023/09/18 05:48:46;;;;;;;4.70;2.20;;;;;;;;;;4980642;28;20034;-68
2023/09/18 05:51:11;;;;;;;4.25;1.95;;;;;;;;;;4978940;28;20046;-67
2023/09/18 05:53:37;;;;;;;3.80;1.90;;;;;;;;;;4987265;28;20033;-67
2023/09/18 05:56:03;;;;;;;7.85;2.40;;;;;;;;;;4978594;28;20091;-68
2023/09/18 05:58:31;;;;;;;6.32;2.60;;;;;;;;;;4987274;28;20038;-68
2023/09/18 06:01:00;;;;;;;8.48;2.30;;;;;;;;;;4974744;28;20039;-68
2023/09/18 06:03:30;;;;;;;4.53;2.50;;;;;;;;;;4973423;28;20118;-68
2023/09/18 06:05:56;;;;;;;5.75;2.50;;;;;;;;;;4981672;28;20524;-68
2023/09/18 06:08:21;;;;;;;4.10;2.33;;;;;;;;;;4973459;28;20049;-68
2023/09/18 06:10:47;;;;;;;4.70;2.40;;;;;;;;;;4982587;28;20038;-68
2023/09/18 06:13:12;;;;;;;6.03;2.65;;;;;;;;;;4967831;28;20133;-67
2023/09/18 06:15:37;;;;;;;5.15;2.83;;;;;;;;;;4950830;28;20042;-67
2023/09/18 06:18:03;;;;;;;4.78;2.72;;;;;;;;;;4957080;28;20027;-68
2023/09/18 06:20:28;;;;;;;5.63;3.15;;;;;;;;;;4975202;28;20030;-68
2023/09/18 06:22:54;;;;;;;8.50;3.00;;;;;;;;;;4975698;28;20066;-68
2023/09/18 06:25:20;;;;;;;5.03;2.78;;;;;;;;;;4968604;28;20113;-68
2023/09/18 06:27:45;;;;;;;4.80;2.67;;;;;;;;;;4975185;28;20038;-68
2023/09/18 06:30:11;;;;;;;4.38;2.55;;;;;;;;;;4977120;28;20133;-68
2023/09/18 06:32:37;;;;;;;7.07;2.95;;;;;;;;;;4977657;28;20027;-68
2023/09/18 06:35:02;;;;;;;5.22;2.83;;;;;;;;;;4979628;28;20034;-68
2023/09/18 06:37:28;;;;;;;4.97;2.95;;;;;;;;;;4978562;28;20039;-68
2023/09/18 06:39:53;;;;;;;6.20;3.13;;;;;;;;;;4977711;28;21034;-67
2023/09/18 06:42:19;;;;;;;8.10;2.90;;;;;;;;;;4975660;28;20830;-68
2023/09/18 06:44:44;;;;;;;9.43;2.70;;;;;;;;;;4975471;28;20038;-67
2023/09/18 06:47:10;;;;;;;4.32;2.75;;;;;;;;;;4978361;28;20046;-68
2023/09/18 06:49:35;;;;;;;8.80;3.30;;;;;;;;;;4984550;28;20535;-68
2023/09/18 06:52:01;;;;;;;5.10;3.03;;;;;;;;;;4980131;28;20038;-68
2023/09/18 06:54:26;;;;;;;4.18;2.50;;;;;;;;;;4977905;28;20042;-68
2023/09/18 06:56:51;;;;;;;5.70;2.67;;;;;;;;;;4980425;28;20507;-68
2023/09/18 06:59:17;;;;;;;3.92;2.63;;;;;;;;;;4980089;28;20027;-68
2023/09/18 07:01:42;;;;;;;5.55;2.60;;;;;;;;;;4971107;28;20034;-68
2023/09/18 07:04:08;;;;;;;6.63;2.92;;;;;;;;;;4978750;28;20579;-68
2023/09/18 07:06:34;;;;;;;6.75;2.80;;;;;;;;;;5000968;28;20038;-68
2023/09/18 07:08:59;;;;;;;6.45;3.30;;;;;;;;;;4979682;28;20030;-68
2023/09/18 07:11:25;;;;;;;8.68;3.10;;;;;;;;;;4977598;28;20023;-68
2023/09/18 07:13:50;;;;;;;4.43;3.25;;;;;;;;;;4983892;28;20045;-68
2023/09/18 07:16:16;;;;;;;4.95;2.50;;;;;;;;;;4984870;28;20058;-68
2023/09/18 07:18:41;;;;;;;7.22;2.80;;;;;;;;;;4988559;28;20125;-68
2023/09/18 07:21:07;;;;;;;6.32;2.90;;;;;;;;;;4989404;28;20101;-68
2023/09/18 07:23:35;;;;;;;9.85;2.70;;;;;;;;;;4982208;28;20404;-68
2023/09/18 07:26:00;;;;;;;3.92;2.47;;;;;;;;;;4973254;28;20058;-68
2023/09/18 07:28:26;;;;;;;6.18;2.75;;;;;;;;;;5001369;28;20112;-68
2023/09/18 07:30:52;;;;;;;5.32;2.67;;;;;;;;;;4974221;28;20618;-68
2023/09/18 07:33:19;;;;;;;5.00;2.65;;;;;;;;;;4973724;28;20023;-68
2023/09/18 07:35:51;;;;;;;6.55;3.15;;;;;;;;;;4980900;28;20022;-68
2023/09/18 07:38:18;;;;;;;4.03;2.50;;;;;;;;;;4974878;28;20053;-68
2023/09/18 07:40:44;;;;;;;6.20;3.08;;;;;;;;;;4974737;28;20166;-68
2023/09/18 07:43:09;;;;;;;5.50;3.20;;;;;;;;;;4986189;28;20601;-68
2023/09/18 07:45:37;;;;;;;9.73;2.60;;;;;;;;;;4977520;28;20046;-68
2023/09/18 07:48:03;;;;;;;6.63;2.80;;;;;;;;;;4975226;28;20019;-67
2023/09/18 07:50:31;;;;;;;7.88;3.40;;;;;;;;;;4976201;28;20025;-68
2023/09/18 07:52:56;;;;;;;4.22;2.70;;;;;;;;;;4976991;28;20030;-68
2023/09/18 07:55:21;;;;;;;7.53;2.97;;;;;;;;;;4974125;28;20045;-68
2023/09/18 07:57:49;;;;;;;4.13;2.65;;;;;;;;;;4981156;28;20125;-68
2023/09/18 08:00:15;;;;;;;4.85;3.00;;;;;;;;;;4979428;28;20066;-68
2023/09/18 08:02:41;;;;;;;5.90;2.92;;;;;;;;;;4975738;28;20030;-68
2023/09/18 08:05:08;;;;;;;4.72;3.00;;;;;;;;;;4973194;28;20586;-68
2023/09/18 08:07:35;;;;;;;10.23;3.17;;;;;;;;;;4969750;28;20038;-68
2023/09/18 08:10:08;;;;;;;6.68;3.67;;;;;;;;;;4965803;28;20043;-68
2023/09/18 08:12:35;;;;;;;5.78;3.60;;;;;;;;;;4975494;28;20046;-68
2023/09/18 08:15:01;;;;;;;7.63;3.70;;;;;;;;;;4974140;28;20105;-68
2023/09/18 08:17:27;;;;;;;4.72;3.42;;;;;;;;;;4966927;28;20641;-68
2023/09/18 08:19:53;;;;;;;6.25;3.47;;;;;;;;;;4973432;28;20045;-68
2023/09/18 08:22:20;;;;;;;6.63;3.60;;;;;;;;;;4972559;28;20043;-68
2023/09/18 08:24:48;;;;;;;6.35;3.70;;;;;;;;;;4974363;28;20311;-68
2023/09/18 08:27:16;;;;;;;6.55;3.60;;;;;;;;;;4974760;28;20025;-68
2023/09/18 08:29:43;;;;;;;8.32;3.83;;;;;;;;;;4985616;28;20030;-68
2023/09/18 08:32:08;;;;;;;6.10;3.33;;;;;;;;;;4976462;28;20038;-68
2023/09/18 08:34:33;;;;;;;6.63;4.15;;;;;;;;;;4973616;28;20526;-68
2023/09/18 08:36:59;;;;;;;9.45;4.28;;;;;;;;;;4975633;28;20046;-68
2023/09/18 08:39:24;;;;;;;6.95;4.05;;;;;;;;;;4979426;28;20035;-68
2023/09/18 08:41:56;;;;;;;9.13;4.25;;;;;;;;;;4970087;28;20074;-68
2023/09/18 08:44:26;;;;;;;9.57;4.50;;;;;;;;;;4984163;28;20297;-68
2023/09/18 08:46:51;;;;;;;7.28;4.75;;;;;;;;;;4984171;28;20554;-67
2023/09/18 08:49:17;;;;;;;13.20;4.65;;;;;;;;;;4975304;28;20038;-67
2023/09/18 08:51:43;;;;;;;9.38;4.88;;;;;;;;;;4973155;28;20661;-68
2023/09/18 08:54:09;;;;;;;9.10;4.93;;;;;;;;;;4971862;28;20026;-68
2023/09/18 08:56:35;;;;;;;9.75;5.20;;;;;;;;;;4974115;28;20117;-68
2023/09/18 08:59:00;;;;;;;10.10;5.47;;;;;;;;;;4971024;28;20167;-68
2023/09/18 09:01:26;;;;;;;8.05;5.07;;;;;;;;;;4974929;28;20052;-68
2023/09/18 09:03:51;;;;;;;11.48;5.47;;;;;;;;;;4976400;28;20046;-68
2023/09/18 09:06:17;;;;;;;7.57;5.03;;;;;;;;;;4974409;28;20511;-69
2023/09/18 09:08:43;;;;;;;7.90;4.95;;;;;;;;;;4972482;28;20035;-68
2023/09/18 09:11:08;;;;;;;9.30;5.18;;;;;;;;;;4973383;28;20521;-68
2023/09/18 09:13:34;;;;;;;8.00;4.88;;;;;;;;;;4974415;28;20077;-69
2023/09/18 09:16:00;;;;;;;11.07;5.07;;;;;;;;;;4973027;28;20038;-69
2023/09/18 09:18:27;;;;;;;6.85;5.03;;;;;;;;;;4969897;28;20105;-69
2023/09/18 09:20:59;;;;;;;7.28;4.25;;;;;;;;;;4976469;28;20027;-68
2023/09/18 09:23:27;;;;;;;8.63;4.60;;;;;;;;;;4978218;28;20515;-69
2023/09/18 09:25:53;;;;;;;7.40;5.13;;;;;;;;;;4966694;28;20038;-69
2023/09/18 09:28:30;;;;;;;8.13;5.38;;;;;;;;;;4974498;28;20137;-69
2023/09/18 09:31:05;;;;;;;8.82;5.32;;;;;;;;;;4974360;28;20049;-69
2023/09/18 09:33:31;;;;;;;8.00;5.05;;;;;;;;;;4978202;28;20038;-68
2023/09/18 09:35:57;;;;;;;8.02;4.57;;;;;;;;;;4975159;28;20060;-68
2023/09/18 09:38:33;;;;;;;8.73;4.68;;;;;;;;;;4970414;28;20520;-69
2023/09/18 09:41:00;;;;;;;14.80;6.00;;;;;;;;;;4972890;28;20046;-68
2023/09/18 09:43:26;;;;;;;10.40;6.25;;;;;;;;;;4971130;28;20046;-68
2023/09/18 09:46:05;;;;;;;8.07;5.10;;;;;;;;;;4972319;28;20030;-68
2023/09/18 09:48:31;;;;;;;8.30;5.20;;;;;;;;;;4975617;28;20564;-68
2023/09/18 09:51:01;;;;;;;6.05;4.97;;;;;;;;;;4971509;28;20027;-70
2023/09/18 09:53:50;;;;;;;9.07;5.55;;;;;;;;;;4993181;28;20046;-69
2023/09/18 09:56:21;;;;;;;11.10;4.88;;;;;;;;;;4974819;28;20548;-69
2023/09/18 09:59:02;;;;;;;5.97;4.30;;;;;;;;;;4968987;28;20547;-69
2023/09/18 10:01:28;;;;;;;8.43;4.40;;;;;;;;;;4981315;28;20038;-69
2023/09/18 10:03:54;;;;;;;9.93;4.15;;;;;;;;;;4979059;28;20093;-69
2023/09/18 10:06:21;;;;;;;10.63;4.38;;;;;;;;;;4980941;28;21016;-69
2023/09/18 10:08:47;;;;;;;9.85;4.38;;;;;;;;;;4981964;28;20034;-69
2023/09/18 10:11:16;;;;;;;6.88;4.03;;;;;;;;;;4990317;28;20074;-69
2023/09/18 10:13:53;;;;;;;8.65;4.07;;;;;;;;;;4987779;28;20045;-69
2023/09/18 10:16:26;;;;;;;6.82;3.97;;;;;;;;;;4975696;28;20517;-69
2023/09/18 10:19:30;;;;;;;6.97;4.90;;;;;;;;;;4983130;28;20046;-69
2023/09/18 10:22:13;;;;;;;;;;;;;;;;;;4976637;28;20924;-69
2023/09/18 10:24:41;;;;;;;8.32;4.30;;;;;;;;;;4972858;28;20017;-69
2023/09/18 10:27:09;;;;;;;6.05;3.85;;;;;;;;;;4975296;28;20576;-69
2023/09/18 10:29:36;;;;;;;7.38;4.50;;;;;;;;;;4977097;28;20134;-69
2023/09/18 10:32:07;;;;;;;6.90;3.90;;;;;;;;;;4974959;28;20039;-69
2023/09/18 10:34:34;;;;;;;6.38;4.18;;;;;;;;;;4971699;28;20474;-70
2023/09/18 10:37:01;;;;;;;7.68;4.07;;;;;;;;;;4972184;28;20672;-69
2023/09/18 10:39:28;;;;;;;5.78;3.53;;;;;;;;;;4979734;28;20046;-69
2023/09/18 10:41:56;;;;;;;5.38;3.72;;;;;;;;;;4977544;28;20170;-69
2023/09/18 10:44:23;;;;;;;7.28;3.67;;;;;;;;;;4973910;28;20043;-69
2023/09/18 10:46:51;;;;;;;6.10;3.70;;;;;;;;;;4969505;28;20065;-70
2023/09/18 10:49:17;;;;;;;6.05;3.80;;;;;;;;;;4976954;28;20053;-69
2023/09/18 10:51:45;;;;;;;6.47;3.90;;;;;;;;;;4975375;28;20042;-70
2023/09/18 10:54:14;;;;;;;4.68;3.40;;;;;;;;;;4977677;28;20186;-69
2023/09/18 10:56:41;;;;;;;6.97;3.70;;;;;;;;;;4979704;28;20377;-69
2023/09/18 10:59:07;;;;;;;6.10;3.50;;;;;;;;;;4975629;28;20046;-71
2023/09/18 11:01:36;;;;;;;5.07;3.03;;;;;;;;;;4970638;28;20054;-70
2023/09/18 11:04:09;;;;;;;5.40;2.78;;;;;;;;;;4974763;28;20121;-69
2023/09/18 11:06:57;;;;;;;7.80;3.67;;;;;;;;;;4972277;28;20050;-70
2023/09/18 11:09:23;;;;;;;7.57;4.07;;;;;;;;;;4970083;28;20121;-68
2023/09/18 11:12:03;;;;;;;6.38;3.58;;;;;;;;;;4974344;28;20065;-69
2023/09/18 11:14:58;;;;;;;7.50;3.80;;;;;;;;;;4972935;28;20054;-68
2023/09/18 11:17:36;;;;;;;4.43;3.40;;;;;;;;;;4975568;28;20145;-68
2023/09/18 11:20:17;;;;;;;5.65;3.70;;;;;;;;;;4972971;28;20530;-68
2023/09/18 11:22:49;;;;;;;5.25;3.50;;;;;;;;;;4977060;28;20051;-68
2023/09/18 11:25:35;;;;;;;5.55;3.40;;;;;;;;;;4967207;28;20070;-69
2023/09/18 11:28:07;;;;;;;8.95;3.72;;;;;;;;;;4974082;28;20038;-68
2023/09/18 11:30:35;;;;;;;4.72;3.20;;;;;;;;;;4976459;28;20318;-68
2023/09/18 11:33:05;;;;;;;3.47;3.08;;;;;;;;;;4979648;28;20078;-68
2023/09/18 11:35:33;;;;;;;5.82;2.75;;;;;;;;;;4994814;28;20034;-68
2023/09/18 11:38:05;;;;;;;4.80;3.03;;;;;;;;;;4986566;28;20046;-69
2023/09/18 11:40:34;;;;;;;4.88;2.70;;;;;;;;;;4979922;28;20138;-68
2023/09/18 11:43:26;;;;;;;3.95;2.80;;;;;;;;;;4969457;28;20039;-69
2023/09/18 11:45:56;;;;;;;5.15;3.00;;;;;;;;;;4975508;28;20035;-69
2023/09/18 11:48:29;;;;;;;6.15;3.20;;;;;;;;;;4974932;28;20038;-70
2023/09/18 11:50:56;;;;;;;5.88;2.97;;;;;;;;;;4981339;28;20049;-69
2023/09/18 11:53:23;;;;;;;4.88;2.90;;;;;;;;;;4972378;28;20035;-69
2023/09/18 11:55:49;;;;;;;4.60;2.58;;;;;;;;;;4977310;28;20054;-69
2023/09/18 11:58:14;;;;;;;3.40;2.80;;;;;;;;;;4988497;28;20095;-68
2023/09/18 12:00:47;;;;;;;5.50;3.17;;;;;;;;;;4978234;28;20046;-68
2023/09/18 12:03:25;;;;;;;2.83;2.22;;;;;;;;;;4995287;28;20092;-69
2023/09/18 12:06:01;;;;;;;4.47;2.75;;;;;;;;;;4977408;28;20507;-68
2023/09/18 12:08:30;;;;;;;3.75;2.78;;;;;;;;;;4973006;28;20061;-68
2023/09/18 12:10:56;;;;;;;4.55;2.50;;;;;;;;;;4978678;28;20461;-69
2023/09/18 12:13:24;;;;;;;4.43;2.70;;;;;;;;;;4979542;28;20713;-68
2023/09/18 12:15:49;;;;;;;5.03;2.70;;;;;;;;;;4974185;28;20047;-69
2023/09/18 12:18:16;;;;;;;3.55;2.25;;;;;;;;;;4980153;28;20034;-69
2023/09/18 12:20:46;;;;;;;4.50;2.80;;;;;;;;;;4982705;28;20022;-69
2023/09/18 12:23:11;;;;;;;5.07;2.75;;;;;;;;;;4973631;28;21354;-70
2023/09/18 12:25:38;;;;;;;5.53;2.92;;;;;;;;;;4976435;28;20101;-69
2023/09/18 12:28:06;;;;;;;5.50;2.40;;;;;;;;;;4981770;28;20108;-68
2023/09/18 12:30:33;;;;;;;6.03;2.58;;;;;;;;;;4971025;28;20035;-68
2023/09/18 12:33:01;;;;;;;7.75;2.70;;;;;;;;;;4973474;28;20104;-68
2023/09/18 12:35:29;;;;;;;4.90;2.70;;;;;;;;;;4972435;28;20175;-68
2023/09/18 12:37:59;;;;;;;6.50;2.72;;;;;;;;;;4974395;28;20034;-68
2023/09/18 12:40:35;;;;;;;2.65;2.22;;;;;;;;;;4972950;28;20087;-69
2023/09/18 12:43:02;;;;;;;3.15;2.20;;;;;;;;;;4970205;28;20420;-68
2023/09/18 12:45:29;;;;;;;3.05;2.42;;;;;;;;;;4976487;28;20062;-69
2023/09/18 12:47:56;;;;;;;3.85;2.45;;;;;;;;;;4978871;28;20023;-69
2023/09/18 12:50:22;;;;;;;5.82;3.30;;;;;;;;;;4971918;28;20045;-69
2023/09/18 12:52:47;;;;;;;4.45;2.50;;;;;;;;;;4980950;28;20713;-69
2023/09/18 12:55:26;;;;;;;4.15;2.40;;;;;;;;;;4973033;28;20578;-69
2023/09/18 12:57:53;;;;;;;4.13;2.38;;;;;;;;;;4981651;28;20446;-69
2023/09/18 13:00:22;;;;;;;6.60;2.40;;;;;;;;;;4976979;28;20146;-69
2023/09/18 13:02:51;;;;;;;6.53;2.72;;;;;;;;;;4985317;28;20735;-69
2023/09/18 13:05:20;;;;;;;3.50;2.10;;;;;;;;;;4977064;28;20061;-71
2023/09/18 13:07:45;;;;;;;3.28;2.00;;;;;;;;;;4972959;28;20050;-68
2023/09/18 13:10:11;;;;;;;5.30;2.50;;;;;;;;;;4970587;28;20093;-69
2023/09/18 13:12:40;;;;;;;3.08;2.22;;;;;;;;;;4971190;28;20042;-69
2023/09/18 13:15:12;;;;;;;4.57;2.30;;;;;;;;;;4973698;28;20044;-69
2023/09/18 13:17:45;;;;;;;5.03;2.55;;;;;;;;;;4975112;28;20089;-69
2023/09/18 13:20:26;;;;;;;3.28;2.17;;;;;;;;;;4990297;28;20034;-69
2023/09/18 13:22:53;;;;;;;3.42;2.28;;;;;;;;;;4974767;28;20132;-68
2023/09/18 13:25:48;;;;;;;2.83;2.28;;;;;;;;;;4973421;28;20042;-70
2023/09/18 13:28:14;;;;;;;3.38;2.38;;;;;;;;;;4967306;28;20046;-70
2023/09/18 13:30:41;;;;;;;4.80;2.25;;;;;;;;;;4974192;28;20980;-69
2023/09/18 13:33:12;;;;;;;3.42;1.90;;;;;;;;;;4969661;28;20085;-68
2023/09/18 13:35:42;;;;;;;3.70;2.03;;;;;;;;;;4972022;28;20408;-68
2023/09/18 13:38:08;;;;;;;4.30;2.08;;;;;;;;;;4969366;28;20090;-68
2023/09/18 13:40:39;;;;;;;2.90;2.13;;;;;;;;;;4975255;28;20050;-68
2023/09/18 13:43:05;;;;;;;2.78;1.95;;;;;;;;;;4971393;28;20065;-68
2023/09/18 13:45:35;;;;;;;4.68;2.13;;;;;;;;;;4976480;28;20046;-68
2023/09/18 13:48:01;;;;;;;4.28;2.20;;;;;;;;;;4976645;28;20084;-68
2023/09/18 13:50:27;;;;;;;5.32;4.75;;;;;;;;;;4976828;28;20038;-68
2023/09/18 13:52:52;;;;;;;5.20;2.65;;;;;;;;;;4975726;28;20154;-68
2023/09/18 13:55:19;;;;;;;5.68;2.10;;;;;;;;;;4968791;28;20039;-68
2023/09/18 13:57:44;;;;;;;6.07;2.03;;;;;;;;;;4977806;28;20042;-68
2023/09/18 14:00:11;;;;;;;7.28;1.80;;;;;;;;;;4977184;28;20412;-68
2023/09/18 14:02:40;;;;;;;2.83;2.05;;;;;;;;;;4968448;28;20066;-68
2023/09/18 14:05:07;;;;;;;3.10;1.88;;;;;;;;;;4976022;28;20413;-67
2023/09/18 14:07:33;;;;;;;6.63;1.98;;;;;;;;;;4972169;28;20057;-68
2023/09/18 14:09:59;;;;;;;4.43;2.05;;;;;;;;;;4974605;28;20073;-68
2023/09/18 14:12:24;;;;;;;5.05;2.15;;;;;;;;;;4976104;28;20041;-67
2023/09/18 14:14:50;;;;;;;2.55;1.98;;;;;;;;;;4977364;28;20030;-66
2023/09/18 14:17:17;;;;;;;2.35;1.50;;;;;;;;;;4975119;28;20542;-66
2023/09/18 14:19:44;;;;;;;3.30;2.20;;;;;;;;;;4974531;28;20039;-67
2023/09/18 14:22:09;;;;;;;5.13;2.50;;;;;;;;;;4974140;28;20538;-66
2023/09/18 14:24:35;;;;;;;4.15;2.80;;;;;;;;;;4975901;28;20038;-66
2023/09/18 14:27:02;;;;;;;3.80;2.35;;;;;;;;;;4982761;28;20057;-66
2023/09/18 14:29:27;;;;;;;4.43;2.70;;;;;;;;;;4990156;28;20023;-67
2023/09/18 14:31:53;;;;;;;6.90;2.90;;;;;;;;;;4975612;28;20041;-67
2023/09/18 14:34:18;;;;;;;3.67;2.63;;;;;;;;;;4975538;28;20692;-68
2023/09/18 14:36:44;;;;;;;5.97;2.75;;;;;;;;;;4976016;28;20137;-67
2023/09/18 14:39:10;;;;;;;6.35;2.70;;;;;;;;;;4975303;28;20057;-67
2023/09/18 14:41:37;;;;;;;4.22;2.50;;;;;;;;;;4964719;28;20046;-67
2023/09/18 14:44:04;;;;;;;6.97;2.70;;;;;;;;;;4969501;28;20038;-68
2023/09/18 14:46:33;;;;;;;3.35;2.25;;;;;;;;;;4970688;28;20721;-68